sensor_id;sensor_type;location;lat;lon;timestamp;P1;durP1;ratioP1;P2;durP2;ratioP2
76405;SDS011;65234;50.044;19.258;2023-01-20T00:01:11;39.05;;;35.80;;
76405;SDS011;65234;50.044;19.258;2023-01-20T00:03:38;42.53;;;38.08;;
76405;SDS011;65234;50.044;19.258;2023-01-20T00:06:06;40.22;;;35.80;;
76405;SDS011;65234;50.044;19.258;2023-01-20T00:08:34;38.17;;;34.47;;
76405;SDS011;65234;50.044;19.258;2023-01-20T00:11:02;40.80;;;36.67;;
76405;SDS011;65234;50.044;19.258;2023-01-20T00:13:29;41.50;;;34.42;;
76405;SDS011;65234;50.044;19.258;2023-01-20T00:15:55;41.80;;;37.55;;
76405;SDS011;65234;50.044;19.258;2023-01-20T00:18:20;55.17;;;39.90;;
76405;SDS011;65234;50.044;19.258;2023-01-20T00:20:46;42.55;;;38.15;;
76405;SDS011;65234;50.044;19.258;2023-01-20T00:23:12;38.17;;;35.10;;
76405;SDS011;65234;50.044;19.258;2023-01-20T00:25:39;38.75;;;35.63;;
76405;SDS011;65234;50.044;19.258;2023-01-20T00:28:04;37.88;;;34.22;;
76405;SDS011;65234;50.044;19.258;2023-01-20T00:30:30;39.03;;;36.08;;
76405;SDS011;65234;50.044;19.258;2023-01-20T00:32:56;41.60;;;38.10;;
76405;SDS011;65234;50.044;19.258;2023-01-20T00:35:22;43.78;;;39.83;;
76405;SDS011;65234;50.044;19.258;2023-01-20T00:37:48;41.95;;;38.40;;
76405;SDS011;65234;50.044;19.258;2023-01-20T00:40:14;38.85;;;35.70;;
76405;SDS011;65234;50.044;19.258;2023-01-20T00:42:41;39.50;;;35.90;;
76405;SDS011;65234;50.044;19.258;2023-01-20T00:45:07;38.10;;;34.50;;
76405;SDS011;65234;50.044;19.258;2023-01-20T00:47:32;40.72;;;37.03;;
76405;SDS011;65234;50.044;19.258;2023-01-20T00:49:58;35.15;;;32.70;;
76405;SDS011;65234;50.044;19.258;2023-01-20T00:52:24;40.67;;;36.83;;
76405;SDS011;65234;50.044;19.258;2023-01-20T00:54:50;39.13;;;35.63;;
76405;SDS011;65234;50.044;19.258;2023-01-20T00:57:15;39.00;;;36.00;;
76405;SDS011;65234;50.044;19.258;2023-01-20T00:59:43;38.00;;;34.58;;
76405;SDS011;65234;50.044;19.258;2023-01-20T01:02:08;41.92;;;37.85;;
76405;SDS011;65234;50.044;19.258;2023-01-20T01:04:34;44.42;;;41.03;;
76405;SDS011;65234;50.044;19.258;2023-01-20T01:06:59;45.17;;;40.53;;
76405;SDS011;65234;50.044;19.258;2023-01-20T01:09:25;48.88;;;44.15;;
76405;SDS011;65234;50.044;19.258;2023-01-20T01:11:51;50.85;;;46.15;;
76405;SDS011;65234;50.044;19.258;2023-01-20T01:14:17;45.20;;;40.97;;
76405;SDS011;65234;50.044;19.258;2023-01-20T01:16:44;43.60;;;40.25;;
76405;SDS011;65234;50.044;19.258;2023-01-20T01:19:10;39.42;;;36.03;;
76405;SDS011;65234;50.044;19.258;2023-01-20T01:21:35;37.90;;;35.17;;
76405;SDS011;65234;50.044;19.258;2023-01-20T01:24:01;42.30;;;38.47;;
76405;SDS011;65234;50.044;19.258;2023-01-20T01:26:27;44.78;;;40.80;;
76405;SDS011;65234;50.044;19.258;2023-01-20T01:28:53;41.53;;;37.67;;
76405;SDS011;65234;50.044;19.258;2023-01-20T01:31:18;41.72;;;38.25;;
76405;SDS011;65234;50.044;19.258;2023-01-20T01:33:45;41.15;;;37.20;;
76405;SDS011;65234;50.044;19.258;2023-01-20T01:36:11;40.80;;;37.17;;
76405;SDS011;65234;50.044;19.258;2023-01-20T01:38:41;35.20;;;31.73;;
76405;SDS011;65234;50.044;19.258;2023-01-20T01:41:08;37.50;;;34.40;;
76405;SDS011;65234;50.044;19.258;2023-01-20T01:43:35;39.53;;;36.30;;
76405;SDS011;65234;50.044;19.258;2023-01-20T01:46:02;41.30;;;37.58;;
76405;SDS011;65234;50.044;19.258;2023-01-20T01:48:29;42.47;;;38.63;;
76405;SDS011;65234;50.044;19.258;2023-01-20T01:51:00;39.22;;;36.42;;
76405;SDS011;65234;50.044;19.258;2023-01-20T01:53:29;46.25;;;41.83;;
76405;SDS011;65234;50.044;19.258;2023-01-20T01:56:00;38.22;;;35.45;;
76405;SDS011;65234;50.044;19.258;2023-01-20T01:58:29;44.35;;;37.80;;
76405;SDS011;65234;50.044;19.258;2023-01-20T02:00:58;41.50;;;37.28;;
76405;SDS011;65234;50.044;19.258;2023-01-20T02:03:25;37.53;;;34.47;;
76405;SDS011;65234;50.044;19.258;2023-01-20T02:05:53;36.38;;;33.50;;
76405;SDS011;65234;50.044;19.258;2023-01-20T02:08:21;37.70;;;34.20;;
76405;SDS011;65234;50.044;19.258;2023-01-20T02:10:47;36.00;;;33.20;;
76405;SDS011;65234;50.044;19.258;2023-01-20T02:13:13;36.10;;;33.15;;
76405;SDS011;65234;50.044;19.258;2023-01-20T02:15:40;38.40;;;34.95;;
76405;SDS011;65234;50.044;19.258;2023-01-20T02:18:23;40.40;;;36.58;;
76405;SDS011;65234;50.044;19.258;2023-01-20T02:27:06;40.80;;;37.13;;
76405;SDS011;65234;50.044;19.258;2023-01-20T02:29:41;40.75;;;36.42;;
76405;SDS011;65234;50.044;19.258;2023-01-20T02:32:25;37.50;;;34.05;;
76405;SDS011;65234;50.044;19.258;2023-01-20T02:34:56;41.85;;;38.25;;
76405;SDS011;65234;50.044;19.258;2023-01-20T02:37:27;48.53;;;38.28;;
76405;SDS011;65234;50.044;19.258;2023-01-20T02:39:59;39.88;;;35.80;;
76405;SDS011;65234;50.044;19.258;2023-01-20T02:42:37;40.03;;;35.90;;
76405;SDS011;65234;50.044;19.258;2023-01-20T02:45:08;35.33;;;32.10;;
76405;SDS011;65234;50.044;19.258;2023-01-20T02:47:41;41.92;;;37.60;;
76405;SDS011;65234;50.044;19.258;2023-01-20T02:50:15;43.08;;;38.92;;
76405;SDS011;65234;50.044;19.258;2023-01-20T02:52:47;38.60;;;34.78;;
76405;SDS011;65234;50.044;19.258;2023-01-20T02:55:18;46.88;;;36.55;;
76405;SDS011;65234;50.044;19.258;2023-01-20T02:57:47;42.20;;;38.70;;
76405;SDS011;65234;50.044;19.258;2023-01-20T03:00:19;35.85;;;33.40;;
76405;SDS011;65234;50.044;19.258;2023-01-20T03:02:51;40.10;;;35.67;;
76405;SDS011;65234;50.044;19.258;2023-01-20T03:05:21;40.40;;;36.25;;
76405;SDS011;65234;50.044;19.258;2023-01-20T03:07:50;39.35;;;35.28;;
76405;SDS011;65234;50.044;19.258;2023-01-20T03:10:19;36.38;;;33.30;;
76405;SDS011;65234;50.044;19.258;2023-01-20T03:12:47;39.42;;;35.35;;
76405;SDS011;65234;50.044;19.258;2023-01-20T03:15:18;39.90;;;32.38;;
76405;SDS011;65234;50.044;19.258;2023-01-20T03:17:48;36.53;;;34.03;;
76405;SDS011;65234;50.044;19.258;2023-01-20T03:20:16;35.10;;;31.67;;
76405;SDS011;65234;50.044;19.258;2023-01-20T03:22:42;43.75;;;37.47;;
76405;SDS011;65234;50.044;19.258;2023-01-20T03:25:08;38.70;;;35.88;;
76405;SDS011;65234;50.044;19.258;2023-01-20T03:27:35;37.95;;;35.03;;
76405;SDS011;65234;50.044;19.258;2023-01-20T03:30:01;37.03;;;34.22;;
76405;SDS011;65234;50.044;19.258;2023-01-20T03:32:27;52.08;;;37.20;;
76405;SDS011;65234;50.044;19.258;2023-01-20T03:34:55;35.95;;;33.38;;
76405;SDS011;65234;50.044;19.258;2023-01-20T03:37:22;42.13;;;37.70;;
76405;SDS011;65234;50.044;19.258;2023-01-20T03:39:48;37.53;;;33.97;;
76405;SDS011;65234;50.044;19.258;2023-01-20T03:42:15;36.03;;;33.83;;
76405;SDS011;65234;50.044;19.258;2023-01-20T03:44:53;39.00;;;35.97;;
76405;SDS011;65234;50.044;19.258;2023-01-20T03:47:26;37.90;;;34.83;;
76405;SDS011;65234;50.044;19.258;2023-01-20T03:50:05;36.47;;;33.33;;
76405;SDS011;65234;50.044;19.258;2023-01-20T03:52:39;34.90;;;32.55;;
76405;SDS011;65234;50.044;19.258;2023-01-20T03:55:09;34.63;;;32.03;;
76405;SDS011;65234;50.044;19.258;2023-01-20T03:57:39;38.20;;;34.78;;
76405;SDS011;65234;50.044;19.258;2023-01-20T04:00:08;37.55;;;34.08;;
76405;SDS011;65234;50.044;19.258;2023-01-20T04:02:35;35.78;;;33.05;;
76405;SDS011;65234;50.044;19.258;2023-01-20T04:05:04;37.85;;;34.90;;
76405;SDS011;65234;50.044;19.258;2023-01-20T04:07:32;37.35;;;33.72;;
76405;SDS011;65234;50.044;19.258;2023-01-20T04:10:00;37.10;;;33.70;;
76405;SDS011;65234;50.044;19.258;2023-01-20T04:12:30;39.50;;;35.67;;
76405;SDS011;65234;50.044;19.258;2023-01-20T04:14:56;44.90;;;36.22;;
76405;SDS011;65234;50.044;19.258;2023-01-20T04:17:25;35.70;;;33.20;;
76405;SDS011;65234;50.044;19.258;2023-01-20T04:19:52;37.53;;;34.75;;
76405;SDS011;65234;50.044;19.258;2023-01-20T04:22:21;36.83;;;33.42;;
76405;SDS011;65234;50.044;19.258;2023-01-20T04:24:52;37.72;;;34.10;;
76405;SDS011;65234;50.044;19.258;2023-01-20T04:27:22;37.92;;;34.50;;
76405;SDS011;65234;50.044;19.258;2023-01-20T04:29:47;37.88;;;32.17;;
76405;SDS011;65234;50.044;19.258;2023-01-20T04:32:13;34.38;;;32.25;;
76405;SDS011;65234;50.044;19.258;2023-01-20T04:34:39;36.15;;;32.95;;
76405;SDS011;65234;50.044;19.258;2023-01-20T04:37:05;35.85;;;33.08;;
76405;SDS011;65234;50.044;19.258;2023-01-20T04:39:32;36.25;;;33.90;;
76405;SDS011;65234;50.044;19.258;2023-01-20T04:41:57;37.25;;;34.28;;
76405;SDS011;65234;50.044;19.258;2023-01-20T04:44:23;37.27;;;33.93;;
76405;SDS011;65234;50.044;19.258;2023-01-20T04:46:49;39.27;;;36.17;;
76405;SDS011;65234;50.044;19.258;2023-01-20T04:49:15;38.38;;;34.53;;
76405;SDS011;65234;50.044;19.258;2023-01-20T04:51:40;35.00;;;32.17;;
76405;SDS011;65234;50.044;19.258;2023-01-20T04:54:06;34.47;;;31.03;;
76405;SDS011;65234;50.044;19.258;2023-01-20T04:56:33;33.40;;;31.35;;
76405;SDS011;65234;50.044;19.258;2023-01-20T04:58:59;32.47;;;30.10;;
76405;SDS011;65234;50.044;19.258;2023-01-20T05:01:24;35.90;;;32.55;;
76405;SDS011;65234;50.044;19.258;2023-01-20T05:03:50;31.77;;;28.90;;
76405;SDS011;65234;50.044;19.258;2023-01-20T05:06:16;32.93;;;29.93;;
76405;SDS011;65234;50.044;19.258;2023-01-20T05:08:41;32.20;;;29.85;;
76405;SDS011;65234;50.044;19.258;2023-01-20T05:11:07;39.33;;;33.97;;
76405;SDS011;65234;50.044;19.258;2023-01-20T05:13:34;35.58;;;32.50;;
76405;SDS011;65234;50.044;19.258;2023-01-20T05:16:00;34.83;;;32.27;;
76405;SDS011;65234;50.044;19.258;2023-01-20T05:18:25;39.95;;;32.33;;
76405;SDS011;65234;50.044;19.258;2023-01-20T05:20:51;36.60;;;33.73;;
76405;SDS011;65234;50.044;19.258;2023-01-20T05:23:17;38.45;;;35.00;;
76405;SDS011;65234;50.044;19.258;2023-01-20T05:25:48;39.13;;;35.80;;
76405;SDS011;65234;50.044;19.258;2023-01-20T05:28:14;35.92;;;33.38;;
76405;SDS011;65234;50.044;19.258;2023-01-20T05:30:41;37.22;;;33.85;;
76405;SDS011;65234;50.044;19.258;2023-01-20T05:33:07;39.72;;;36.55;;
76405;SDS011;65234;50.044;19.258;2023-01-20T05:35:32;43.65;;;39.72;;
76405;SDS011;65234;50.044;19.258;2023-01-20T05:37:58;36.28;;;33.45;;
76405;SDS011;65234;50.044;19.258;2023-01-20T05:40:24;37.15;;;33.75;;
76405;SDS011;65234;50.044;19.258;2023-01-20T05:42:50;40.67;;;36.65;;
76405;SDS011;65234;50.044;19.258;2023-01-20T05:45:15;34.85;;;32.22;;
76405;SDS011;65234;50.044;19.258;2023-01-20T05:47:43;38.15;;;34.78;;
76405;SDS011;65234;50.044;19.258;2023-01-20T05:50:09;36.35;;;33.47;;
76405;SDS011;65234;50.044;19.258;2023-01-20T05:52:35;35.65;;;32.30;;
76405;SDS011;65234;50.044;19.258;2023-01-20T05:55:01;38.08;;;34.13;;
76405;SDS011;65234;50.044;19.258;2023-01-20T05:57:27;35.67;;;33.08;;
76405;SDS011;65234;50.044;19.258;2023-01-20T05:59:53;37.05;;;34.17;;
76405;SDS011;65234;50.044;19.258;2023-01-20T06:02:18;35.55;;;32.63;;
76405;SDS011;65234;50.044;19.258;2023-01-20T06:04:46;33.47;;;30.88;;
76405;SDS011;65234;50.044;19.258;2023-01-20T06:07:12;34.25;;;31.45;;
76405;SDS011;65234;50.044;19.258;2023-01-20T06:09:38;37.27;;;34.00;;
76405;SDS011;65234;50.044;19.258;2023-01-20T06:12:04;37.60;;;33.97;;
76405;SDS011;65234;50.044;19.258;2023-01-20T06:14:30;33.20;;;30.83;;
76405;SDS011;65234;50.044;19.258;2023-01-20T06:16:56;38.05;;;34.60;;
76405;SDS011;65234;50.044;19.258;2023-01-20T06:19:21;34.23;;;31.77;;
76405;SDS011;65234;50.044;19.258;2023-01-20T06:21:49;32.20;;;29.67;;
76405;SDS011;65234;50.044;19.258;2023-01-20T06:24:14;37.00;;;34.10;;
76405;SDS011;65234;50.044;19.258;2023-01-20T06:26:40;35.97;;;32.77;;
76405;SDS011;65234;50.044;19.258;2023-01-20T06:29:06;32.60;;;30.20;;
76405;SDS011;65234;50.044;19.258;2023-01-20T06:31:32;37.03;;;34.00;;
76405;SDS011;65234;50.044;19.258;2023-01-20T06:33:57;33.77;;;31.10;;
76405;SDS011;65234;50.044;19.258;2023-01-20T06:36:23;32.07;;;29.63;;
76405;SDS011;65234;50.044;19.258;2023-01-20T06:38:50;37.43;;;34.53;;
76405;SDS011;65234;50.044;19.258;2023-01-20T06:41:16;36.83;;;32.20;;
76405;SDS011;65234;50.044;19.258;2023-01-20T06:43:43;35.03;;;32.90;;
76405;SDS011;65234;50.044;19.258;2023-01-20T06:46:09;35.70;;;32.27;;
76405;SDS011;65234;50.044;19.258;2023-01-20T06:48:36;34.80;;;31.60;;
76405;SDS011;65234;50.044;19.258;2023-01-20T06:51:02;35.00;;;32.63;;
76405;SDS011;65234;50.044;19.258;2023-01-20T06:53:29;33.73;;;30.23;;
76405;SDS011;65234;50.044;19.258;2023-01-20T06:55:57;43.67;;;33.33;;
76405;SDS011;65234;50.044;19.258;2023-01-20T06:58:23;35.85;;;32.72;;
76405;SDS011;65234;50.044;19.258;2023-01-20T07:00:50;34.73;;;32.10;;
76405;SDS011;65234;50.044;19.258;2023-01-20T07:03:16;36.53;;;32.90;;
76405;SDS011;65234;50.044;19.258;2023-01-20T07:05:42;40.10;;;33.40;;
76405;SDS011;65234;50.044;19.258;2023-01-20T07:08:07;31.57;;;29.37;;
76405;SDS011;65234;50.044;19.258;2023-01-20T07:10:33;31.93;;;29.40;;
76405;SDS011;65234;50.044;19.258;2023-01-20T07:13:01;36.43;;;33.43;;
76405;SDS011;65234;50.044;19.258;2023-01-20T07:15:26;35.33;;;32.67;;
76405;SDS011;65234;50.044;19.258;2023-01-20T07:17:52;33.07;;;30.73;;
76405;SDS011;65234;50.044;19.258;2023-01-20T07:20:18;33.60;;;31.37;;
76405;SDS011;65234;50.044;19.258;2023-01-20T07:22:44;31.00;;;28.27;;
76405;SDS011;65234;50.044;19.258;2023-01-20T07:25:09;32.13;;;29.83;;
76405;SDS011;65234;50.044;19.258;2023-01-20T07:27:35;32.97;;;30.37;;
76405;SDS011;65234;50.044;19.258;2023-01-20T07:30:02;35.37;;;30.53;;
76405;SDS011;65234;50.044;19.258;2023-01-20T07:32:28;30.77;;;28.70;;
76405;SDS011;65234;50.044;19.258;2023-01-20T07:34:54;32.78;;;30.42;;
76405;SDS011;65234;50.044;19.258;2023-01-20T07:37:20;34.30;;;31.60;;
76405;SDS011;65234;50.044;19.258;2023-01-20T07:39:46;37.35;;;32.95;;
76405;SDS011;65234;50.044;19.258;2023-01-20T07:42:11;32.22;;;29.83;;
76405;SDS011;65234;50.044;19.258;2023-01-20T07:44:37;33.50;;;31.13;;
76405;SDS011;65234;50.044;19.258;2023-01-20T07:47:04;34.63;;;32.15;;
76405;SDS011;65234;50.044;19.258;2023-01-20T07:49:30;31.83;;;29.58;;
76405;SDS011;65234;50.044;19.258;2023-01-20T07:51:55;34.50;;;31.73;;
76405;SDS011;65234;50.044;19.258;2023-01-20T07:54:21;32.45;;;30.27;;
76405;SDS011;65234;50.044;19.258;2023-01-20T07:56:47;33.38;;;30.90;;
76405;SDS011;65234;50.044;19.258;2023-01-20T07:59:13;35.72;;;32.47;;
76405;SDS011;65234;50.044;19.258;2023-01-20T08:01:38;35.80;;;33.00;;
76405;SDS011;65234;50.044;19.258;2023-01-20T08:04:06;32.72;;;30.02;;
76405;SDS011;65234;50.044;19.258;2023-01-20T08:06:31;33.08;;;31.08;;
76405;SDS011;65234;50.044;19.258;2023-01-20T08:08:58;37.35;;;35.08;;
76405;SDS011;65234;50.044;19.258;2023-01-20T08:11:24;38.25;;;35.78;;
76405;SDS011;65234;50.044;19.258;2023-01-20T08:13:50;42.67;;;39.97;;
76405;SDS011;65234;50.044;19.258;2023-01-20T08:16:16;44.65;;;41.88;;
76405;SDS011;65234;50.044;19.258;2023-01-20T08:18:42;49.87;;;46.57;;
76405;SDS011;65234;50.044;19.258;2023-01-20T08:21:15;51.43;;;47.97;;
76405;SDS011;65234;50.044;19.258;2023-01-20T08:23:43;55.60;;;51.97;;
76405;SDS011;65234;50.044;19.258;2023-01-20T08:26:09;51.80;;;48.97;;
76405;SDS011;65234;50.044;19.258;2023-01-20T08:28:35;54.73;;;51.40;;
76405;SDS011;65234;50.044;19.258;2023-01-20T08:31:04;54.50;;;50.90;;
76405;SDS011;65234;50.044;19.258;2023-01-20T08:33:32;57.67;;;53.37;;
76405;SDS011;65234;50.044;19.258;2023-01-20T08:36:01;53.22;;;50.67;;
76405;SDS011;65234;50.044;19.258;2023-01-20T08:38:29;53.07;;;50.13;;
76405;SDS011;65234;50.044;19.258;2023-01-20T08:40:55;51.23;;;48.40;;
76405;SDS011;65234;50.044;19.258;2023-01-20T08:43:21;54.20;;;50.63;;
76405;SDS011;65234;50.044;19.258;2023-01-20T08:45:46;49.27;;;46.73;;
76405;SDS011;65234;50.044;19.258;2023-01-20T08:48:12;53.60;;;49.67;;
76405;SDS011;65234;50.044;19.258;2023-01-20T08:50:38;49.03;;;45.78;;
76405;SDS011;65234;50.044;19.258;2023-01-20T08:53:03;48.17;;;44.15;;
76405;SDS011;65234;50.044;19.258;2023-01-20T08:55:30;42.93;;;39.87;;
76405;SDS011;65234;50.044;19.258;2023-01-20T08:57:56;44.28;;;41.00;;
76405;SDS011;65234;50.044;19.258;2023-01-20T09:00:22;43.53;;;41.00;;
76405;SDS011;65234;50.044;19.258;2023-01-20T09:02:48;42.95;;;39.40;;
76405;SDS011;65234;50.044;19.258;2023-01-20T09:05:14;44.75;;;41.92;;
76405;SDS011;65234;50.044;19.258;2023-01-20T09:07:40;38.47;;;35.53;;
76405;SDS011;65234;50.044;19.258;2023-01-20T09:10:05;41.03;;;38.13;;
76405;SDS011;65234;50.044;19.258;2023-01-20T09:12:34;41.53;;;37.60;;
76405;SDS011;65234;50.044;19.258;2023-01-20T09:14:59;39.78;;;37.40;;
76405;SDS011;65234;50.044;19.258;2023-01-20T09:17:25;38.13;;;34.70;;
76405;SDS011;65234;50.044;19.258;2023-01-20T09:19:51;41.45;;;37.38;;
76405;SDS011;65234;50.044;19.258;2023-01-20T09:22:16;40.28;;;37.08;;
76405;SDS011;65234;50.044;19.258;2023-01-20T09:24:42;41.73;;;38.67;;
76405;SDS011;65234;50.044;19.258;2023-01-20T09:27:08;39.90;;;36.80;;
76405;SDS011;65234;50.044;19.258;2023-01-20T09:29:35;36.40;;;34.03;;
76405;SDS011;65234;50.044;19.258;2023-01-20T09:32:00;37.88;;;35.22;;
76405;SDS011;65234;50.044;19.258;2023-01-20T09:34:27;39.28;;;36.58;;
76405;SDS011;65234;50.044;19.258;2023-01-20T09:36:54;38.08;;;35.25;;
76405;SDS011;65234;50.044;19.258;2023-01-20T09:39:21;35.85;;;33.83;;
76405;SDS011;65234;50.044;19.258;2023-01-20T09:41:47;42.30;;;39.30;;
76405;SDS011;65234;50.044;19.258;2023-01-20T09:47:13;33.90;;;32.00;;
76405;SDS011;65234;50.044;19.258;2023-01-20T09:49:50;37.28;;;35.08;;
76405;SDS011;65234;50.044;19.258;2023-01-20T09:52:28;37.65;;;34.65;;
76405;SDS011;65234;50.044;19.258;2023-01-20T09:54:59;39.33;;;36.53;;
76405;SDS011;65234;50.044;19.258;2023-01-20T09:57:30;36.90;;;34.75;;
76405;SDS011;65234;50.044;19.258;2023-01-20T10:00:02;39.38;;;35.83;;
76405;SDS011;65234;50.044;19.258;2023-01-20T10:02:35;36.00;;;33.83;;
76405;SDS011;65234;50.044;19.258;2023-01-20T10:05:03;39.70;;;35.90;;
76405;SDS011;65234;50.044;19.258;2023-01-20T10:07:36;38.30;;;35.23;;
76405;SDS011;65234;50.044;19.258;2023-01-20T10:10:09;37.47;;;33.87;;
76405;SDS011;65234;50.044;19.258;2023-01-20T10:12:39;34.63;;;32.43;;
76405;SDS011;65234;50.044;19.258;2023-01-20T10:15:11;39.03;;;35.87;;
76405;SDS011;65234;50.044;19.258;2023-01-20T10:17:41;40.15;;;36.35;;
76405;SDS011;65234;50.044;19.258;2023-01-20T10:20:14;37.30;;;33.97;;
76405;SDS011;65234;50.044;19.258;2023-01-20T10:22:47;37.60;;;34.80;;
76405;SDS011;65234;50.044;19.258;2023-01-20T10:25:19;38.25;;;35.47;;
76405;SDS011;65234;50.044;19.258;2023-01-20T10:27:49;35.63;;;32.97;;
76405;SDS011;65234;50.044;19.258;2023-01-20T10:30:20;36.30;;;33.70;;
76405;SDS011;65234;50.044;19.258;2023-01-20T10:32:51;36.53;;;33.93;;
76405;SDS011;65234;50.044;19.258;2023-01-20T10:35:24;33.45;;;31.08;;
76405;SDS011;65234;50.044;19.258;2023-01-20T10:37:51;42.97;;;36.60;;
76405;SDS011;65234;50.044;19.258;2023-01-20T10:40:20;41.03;;;37.08;;
76405;SDS011;65234;50.044;19.258;2023-01-20T10:42:56;39.67;;;36.10;;
76405;SDS011;65234;50.044;19.258;2023-01-20T10:45:28;37.13;;;34.30;;
76405;SDS011;65234;50.044;19.258;2023-01-20T10:48:04;40.63;;;37.22;;
76405;SDS011;65234;50.044;19.258;2023-01-20T10:50:42;42.47;;;38.50;;
76405;SDS011;65234;50.044;19.258;2023-01-20T10:53:31;38.70;;;35.42;;
76405;SDS011;65234;50.044;19.258;2023-01-20T10:56:14;39.58;;;36.13;;
76405;SDS011;65234;50.044;19.258;2023-01-20T10:58:53;41.35;;;37.28;;
76405;SDS011;65234;50.044;19.258;2023-01-20T11:01:20;33.97;;;30.77;;
76405;SDS011;65234;50.044;19.258;2023-01-20T11:03:47;39.65;;;36.28;;
76405;SDS011;65234;50.044;19.258;2023-01-20T11:06:16;40.83;;;36.53;;
76405;SDS011;65234;50.044;19.258;2023-01-20T11:08:44;41.57;;;37.37;;
76405;SDS011;65234;50.044;19.258;2023-01-20T11:11:10;37.20;;;34.13;;
76405;SDS011;65234;50.044;19.258;2023-01-20T11:13:40;39.88;;;33.10;;
76405;SDS011;65234;50.044;19.258;2023-01-20T11:16:10;45.03;;;41.10;;
76405;SDS011;65234;50.044;19.258;2023-01-20T11:18:39;50.45;;;39.47;;
76405;SDS011;65234;50.044;19.258;2023-01-20T11:21:05;40.97;;;37.38;;
76405;SDS011;65234;50.044;19.258;2023-01-20T11:23:34;39.97;;;36.47;;
76405;SDS011;65234;50.044;19.258;2023-01-20T11:26:04;44.03;;;40.87;;
76405;SDS011;65234;50.044;19.258;2023-01-20T11:28:31;45.53;;;41.40;;
76405;SDS011;65234;50.044;19.258;2023-01-20T11:31:09;41.47;;;37.63;;
76405;SDS011;65234;50.044;19.258;2023-01-20T11:33:35;43.95;;;40.47;;
76405;SDS011;65234;50.044;19.258;2023-01-20T11:36:03;49.72;;;45.28;;
76405;SDS011;65234;50.044;19.258;2023-01-20T11:38:31;46.55;;;42.40;;
76405;SDS011;65234;50.044;19.258;2023-01-20T11:41:07;48.65;;;42.88;;
76405;SDS011;65234;50.044;19.258;2023-01-20T11:43:43;46.28;;;41.92;;
76405;SDS011;65234;50.044;19.258;2023-01-20T11:46:09;45.00;;;41.13;;
76405;SDS011;65234;50.044;19.258;2023-01-20T11:48:36;40.65;;;36.80;;
76405;SDS011;65234;50.044;19.258;2023-01-20T11:51:03;41.45;;;37.88;;
76405;SDS011;65234;50.044;19.258;2023-01-20T11:53:30;44.58;;;40.08;;
76405;SDS011;65234;50.044;19.258;2023-01-20T11:55:57;46.50;;;42.88;;
76405;SDS011;65234;50.044;19.258;2023-01-20T11:58:25;41.40;;;37.05;;
76405;SDS011;65234;50.044;19.258;2023-01-20T12:00:58;50.42;;;40.88;;
76405;SDS011;65234;50.044;19.258;2023-01-20T12:06:26;43.65;;;39.17;;
76405;SDS011;65234;50.044;19.258;2023-01-20T12:08:55;44.75;;;39.95;;
76405;SDS011;65234;50.044;19.258;2023-01-20T12:11:26;43.72;;;40.20;;
76405;SDS011;65234;50.044;19.258;2023-01-20T12:14:02;44.75;;;40.83;;
76405;SDS011;65234;50.044;19.258;2023-01-20T12:16:38;55.70;;;42.50;;
76405;SDS011;65234;50.044;19.258;2023-01-20T12:19:05;46.70;;;42.25;;
76405;SDS011;65234;50.044;19.258;2023-01-20T12:21:42;42.78;;;39.05;;
76405;SDS011;65234;50.044;19.258;2023-01-20T12:26:40;48.25;;;39.60;;
76405;SDS011;65234;50.044;19.258;2023-01-20T12:29:09;37.88;;;34.88;;
76405;SDS011;65234;50.044;19.258;2023-01-20T12:31:41;43.22;;;39.60;;
76405;SDS011;65234;50.044;19.258;2023-01-20T12:34:10;40.72;;;38.10;;
76405;SDS011;65234;50.044;19.258;2023-01-20T12:36:42;35.80;;;32.55;;
76405;SDS011;65234;50.044;19.258;2023-01-20T12:39:30;40.92;;;37.60;;
76405;SDS011;65234;50.044;19.258;2023-01-20T12:42:27;41.63;;;37.63;;
76405;SDS011;65234;50.044;19.258;2023-01-20T12:45:14;42.70;;;39.00;;
76405;SDS011;65234;50.044;19.258;2023-01-20T12:47:53;39.67;;;35.97;;
76405;SDS011;65234;50.044;19.258;2023-01-20T12:50:31;43.45;;;39.40;;
76405;SDS011;65234;50.044;19.258;2023-01-20T12:53:18;45.08;;;40.70;;
76405;SDS011;65234;50.044;19.258;2023-01-20T12:55:55;46.55;;;41.97;;
76405;SDS011;65234;50.044;19.258;2023-01-20T12:58:40;38.45;;;34.83;;
76405;SDS011;65234;50.044;19.258;2023-01-20T13:04:24;37.13;;;34.60;;
76405;SDS011;65234;50.044;19.258;2023-01-20T13:13:02;38.67;;;35.72;;
76405;SDS011;65234;50.044;19.258;2023-01-20T13:15:38;64.07;;;37.85;;
76405;SDS011;65234;50.044;19.258;2023-01-20T13:18:17;41.65;;;37.50;;
76405;SDS011;65234;50.044;19.258;2023-01-20T13:20:49;42.15;;;38.08;;
76405;SDS011;65234;50.044;19.258;2023-01-20T13:23:17;44.67;;;40.10;;
76405;SDS011;65234;50.044;19.258;2023-01-20T13:25:49;41.92;;;38.28;;
76405;SDS011;65234;50.044;19.258;2023-01-20T13:28:17;42.50;;;39.35;;
76405;SDS011;65234;50.044;19.258;2023-01-20T13:30:44;38.38;;;35.65;;
76405;SDS011;65234;50.044;19.258;2023-01-20T13:33:14;38.83;;;35.92;;
76405;SDS011;65234;50.044;19.258;2023-01-20T13:35:46;41.80;;;38.03;;
76405;SDS011;65234;50.044;19.258;2023-01-20T13:38:20;37.33;;;35.00;;
76405;SDS011;65234;50.044;19.258;2023-01-20T13:43:32;40.90;;;36.60;;
76405;SDS011;65234;50.044;19.258;2023-01-20T13:49:11;43.55;;;39.25;;
76405;SDS011;65234;50.044;19.258;2023-01-20T13:51:45;47.00;;;42.20;;
76405;SDS011;65234;50.044;19.258;2023-01-20T14:02:43;43.10;;;39.50;;
76405;SDS011;65234;50.044;19.258;2023-01-20T14:05:30;40.45;;;37.60;;
76405;SDS011;65234;50.044;19.258;2023-01-20T14:07:56;39.95;;;37.13;;
76405;SDS011;65234;50.044;19.258;2023-01-20T14:10:22;40.20;;;37.30;;
76405;SDS011;65234;50.044;19.258;2023-01-20T14:12:50;40.83;;;37.28;;
76405;SDS011;65234;50.044;19.258;2023-01-20T14:15:23;41.08;;;37.72;;
76405;SDS011;65234;50.044;19.258;2023-01-20T14:17:58;41.53;;;38.30;;
76405;SDS011;65234;50.044;19.258;2023-01-20T14:20:25;39.67;;;36.22;;
76405;SDS011;65234;50.044;19.258;2023-01-20T14:22:52;45.28;;;39.88;;
76405;SDS011;65234;50.044;19.258;2023-01-20T14:25:19;40.20;;;37.72;;
76405;SDS011;65234;50.044;19.258;2023-01-20T14:27:46;41.70;;;37.58;;
76405;SDS011;65234;50.044;19.258;2023-01-20T14:30:18;37.95;;;35.50;;
76405;SDS011;65234;50.044;19.258;2023-01-20T14:32:45;38.92;;;35.53;;
76405;SDS011;65234;50.044;19.258;2023-01-20T14:35:12;37.58;;;34.85;;
76405;SDS011;65234;50.044;19.258;2023-01-20T14:37:39;44.00;;;39.90;;
76405;SDS011;65234;50.044;19.258;2023-01-20T14:40:07;38.00;;;34.58;;
76405;SDS011;65234;50.044;19.258;2023-01-20T14:42:52;37.13;;;34.63;;
76405;SDS011;65234;50.044;19.258;2023-01-20T14:45:21;36.90;;;34.33;;
76405;SDS011;65234;50.044;19.258;2023-01-20T14:47:50;36.58;;;33.63;;
76405;SDS011;65234;50.044;19.258;2023-01-20T14:50:16;40.13;;;36.08;;
76405;SDS011;65234;50.044;19.258;2023-01-20T14:52:43;43.28;;;39.60;;
76405;SDS011;65234;50.044;19.258;2023-01-20T15:00:20;56.20;;;38.65;;